Overview Statistics Trail Chart Weather Telemetry Raw packets
 

This is the latest recevied weather packets stored in our database for station/object VU2EXP-13. If no packets are shown the sender has not sent any weather packets the latest 10 day(s).

<< 1 2 3 4 5 >>
Time Temp. Humidity Pressure Rain* Wind** Luminosity Snow
1788362290 31.11° C 57% 991.9 hPa - - - -
1788361390 31.11° C 57% 991.8 hPa - - - -
1788360490 31.11° C 57% 991.6 hPa - - - -
1788359589 31.11° C 57% 991.5 hPa - - - -
1788358690 31.11° C 56% 991.4 hPa - - - -
1788357789 31.11° C 56% 991.2 hPa - - - -
1788356890 31.11° C 56% 991 hPa - - - -
1788355990 31.67° C 56% 990.9 hPa - - - -
1788355090 31.67° C 56% 990.7 hPa - - - -
1788354189 31.67° C 55% 990.5 hPa - - - -
1788353290 32.22° C 55% 990.3 hPa - - - -
1788352389 32.22° C 54% 990.4 hPa - - - -
1788351489 32.78° C 53% 990.3 hPa - - - -
1788350589 33.33° C 51% 990.1 hPa - - - -
1788349689 32.78° C 52% 990 hPa - - - -
1788348789 33.33° C 48% 990.2 hPa - - - -
1788347888 33.33° C 49% 990.2 hPa - - - -
1788346988 33.33° C 50% 990.2 hPa - - - -
1788346088 33.89° C 47% 990.4 hPa - - - -
1788345188 33.33° C 47% 990.3 hPa - - - -
1788344288 33.33° C 46% 990.5 hPa - - - -
1788343388 36.67° C 40% 990.6 hPa - - - -
1788342488 35.56° C 42% 990.7 hPa - - - -
1788341588 34.44° C 45% 991 hPa - - - -
1788340688 33.89° C 48% 991.2 hPa - - - -

* Rain since midnight (hover to see other rain measurements)
** Current wind speed in m/s (hover to see current wind gust speed)